KCKB/CKB METAR and TAF weather

Enter ICAO airport designator
Station Type Date Time Source
KCKB METAR 2022/10/01 07:53 UTC NOAA

KCKB 010753Z AUTO 02010KT 8SM FEW055 OVC080 11/08 A2993 RMK AO2 RAE45 SLP126 P0002 T01110078


Station Type Date Time Source
KCKB Decoded METAR 2022/10/01 07:53 UTC NOAA

HARRISON/MARION REGIONAL, WV, United States (KCKB) 39-18N 080-13W 360M
Oct 01, 2022 - 03:53 AM EDT / 2022.10.01 0753 UTC
Wind: from the NNE (020 degrees) at 12 MPH (10 KT):0
Visibility: 8 mile(s):0
Sky conditions: overcast
Precipitation last hour: 0.02 inches
Temperature: 52.0 F (11.1 C)
Dew Point: 46.0 F (7.8 C)
Relative Humidity: 80%
Pressure (altimeter): 29.93 in. Hg (1013 hPa)
ob: KCKB 010753Z AUTO 02010KT 8SM FEW055 OVC080 11/08 A2993 RMK AO2 RAE45 SLP126 P0002 T01110078
cycle: 8

Station Type Date Time Source
KCKB TAF 2022/10/01 08:24 UTC NOAA

TAF
AMD KCKB 010822Z 0108/0206 01010KT P6SM SHRA FEW050 OVC080
FM011500 03009G17KT 6SM SHRA BR OVC060
FM011700 03009G15KT 5SM SHRA BR OVC012
FM012100 02009KT 3SM SHRA BR OVC009
FM020000 02008G15KT 2SM SHRA BR OVC015
FM020400 02005KT 1SM SHRA BR OVC023

Example: see airport list